createdAt,value
2019-04-30T00:02:16.589Z,66.80
2019-04-30T00:04:48.831Z,67.00
2019-04-30T00:07:19.156Z,66.90
2019-04-30T00:09:53.828Z,66.90
2019-04-30T00:12:21.540Z,67.10
2019-04-30T00:14:51.293Z,66.90
2019-04-30T00:17:21.558Z,66.90
2019-04-30T00:19:55.948Z,66.90
2019-04-30T00:22:33.244Z,67.10
2019-04-30T00:24:55.799Z,67.10
2019-04-30T00:27:30.067Z,66.90
2019-04-30T00:30:00.380Z,67.10
2019-04-30T00:32:29.018Z,67.10
2019-04-30T00:34:58.799Z,67.80
2019-04-30T00:37:28.614Z,67.10
2019-04-30T00:39:58.395Z,67.10
2019-04-30T00:42:29.017Z,67.10
2019-04-30T00:44:59.757Z,67.20
2019-04-30T00:47:30.239Z,67.30
2019-04-30T00:50:00.389Z,67.30
2019-04-30T00:52:33.931Z,67.40
2019-04-30T00:55:05.475Z,67.30
2019-04-30T00:57:37.276Z,67.30
2019-04-30T01:00:06.127Z,67.40
2019-04-30T01:02:47.919Z,67.50
2019-04-30T01:05:19.213Z,67.60
2019-04-30T01:07:51.799Z,67.50
2019-04-30T01:10:24.846Z,67.50
2019-04-30T01:12:52.568Z,67.60
2019-04-30T01:15:22.909Z,67.60
2019-04-30T01:17:53.967Z,67.80
2019-04-30T01:20:28.463Z,67.80
2019-04-30T01:22:55.968Z,67.70
2019-04-30T01:25:25.789Z,67.80
2019-04-30T01:27:55.533Z,67.80
2019-04-30T01:30:28.457Z,67.80
2019-04-30T01:33:00.929Z,67.80
2019-04-30T01:35:32.746Z,67.80
2019-04-30T01:38:03.958Z,67.90
2019-04-30T01:40:33.709Z,67.80
2019-04-30T01:43:03.464Z,67.90
2019-04-30T01:45:33.292Z,67.90
2019-04-30T01:48:08.936Z,67.90
2019-04-30T01:50:38.642Z,67.90
2019-04-30T01:53:11.497Z,68.40
2019-04-30T01:55:55.036Z,68.30
2019-04-30T01:58:33.432Z,67.90
2019-04-30T02:01:09.013Z,68.10
2019-04-30T02:03:40.035Z,68.10
2019-04-30T02:06:11.659Z,68.00
2019-04-30T02:08:41.881Z,68.00
2019-04-30T02:11:11.717Z,68.00
2019-04-30T02:13:41.828Z,68.00
2019-04-30T02:16:12.318Z,68.00
2019-04-30T02:18:42.086Z,68.00
2019-04-30T02:21:11.885Z,68.20
2019-04-30T02:23:42.083Z,68.30
2019-04-30T02:26:12.267Z,68.20
2019-04-30T02:28:42.004Z,68.20
2019-04-30T02:31:12.310Z,68.30
2019-04-30T02:33:44.370Z,68.20
2019-04-30T02:36:45.165Z,68.30
2019-04-30T02:39:14.949Z,68.40
2019-04-30T02:41:44.776Z,68.20
2019-04-30T02:44:14.553Z,68.30
2019-04-30T02:46:44.651Z,68.40
2019-04-30T02:49:14.419Z,68.40
2019-04-30T02:51:45.120Z,68.40
2019-04-30T02:54:33.799Z,68.40
2019-04-30T02:57:14.000Z,68.50
2019-04-30T03:00:02.040Z,68.40
2019-04-30T03:02:32.903Z,68.40
2019-04-30T03:05:03.075Z,68.40
2019-04-30T03:07:32.880Z,68.60
2019-04-30T03:10:02.679Z,68.50
2019-04-30T03:12:33.791Z,68.50
2019-04-30T03:15:04.430Z,68.60
2019-04-30T03:17:52.213Z,68.50
2019-04-30T03:20:40.098Z,68.50
2019-04-30T03:23:10.166Z,68.40
2019-04-30T03:25:40.504Z,68.40
2019-04-30T03:28:10.823Z,68.60
2019-04-30T03:30:42.073Z,68.60
2019-04-30T03:33:13.262Z,68.60
2019-04-30T03:35:47.644Z,68.60
2019-04-30T03:38:14.986Z,68.60
2019-04-30T03:40:45.258Z,68.50
2019-04-30T03:43:15.125Z,68.60
2019-04-30T03:45:44.941Z,68.60
2019-04-30T03:48:14.733Z,68.50
2019-04-30T03:50:53.259Z,68.50
2019-04-30T03:53:15.964Z,68.40
2019-04-30T03:55:45.830Z,68.50
2019-04-30T03:58:16.077Z,68.60
2019-04-30T04:01:00.174Z,68.60
2019-04-30T04:03:29.714Z,68.60
2019-04-30T04:06:21.260Z,68.50
2019-04-30T04:08:57.238Z,68.60
2019-04-30T04:11:31.877Z,68.50
2019-04-30T04:14:01.639Z,68.50
2019-04-30T04:16:32.255Z,68.60
2019-04-30T04:19:03.051Z,68.40
2019-04-30T04:21:33.386Z,68.40
2019-04-30T04:24:03.202Z,68.40
2019-04-30T04:26:33.524Z,68.30
2019-04-30T04:29:03.302Z,68.30
2019-04-30T04:31:33.681Z,68.30
2019-04-30T04:34:04.858Z,68.30
2019-04-30T04:36:35.645Z,68.30
2019-04-30T04:39:06.202Z,68.20
2019-04-30T04:41:36.033Z,68.40
2019-04-30T04:44:05.792Z,68.30
2019-04-30T04:46:36.155Z,68.30
2019-04-30T04:49:05.938Z,68.40
2019-04-30T04:51:39.459Z,68.20
2019-04-30T04:54:10.143Z,68.20
2019-04-30T04:56:40.020Z,68.20
2019-04-30T04:59:11.577Z,69.10
2019-04-30T05:01:42.391Z,68.10
2019-04-30T05:04:12.608Z,68.00
2019-04-30T05:06:42.904Z,68.00
2019-04-30T05:09:12.684Z,68.00
2019-04-30T05:11:42.507Z,67.90
2019-04-30T05:14:12.257Z,67.90
2019-04-30T05:16:42.811Z,67.80
2019-04-30T05:19:12.587Z,68.70
2019-04-30T05:21:44.878Z,67.70
2019-04-30T05:24:15.485Z,67.70
2019-04-30T05:26:45.645Z,67.60
2019-04-30T05:29:15.405Z,67.70
2019-04-30T05:31:46.338Z,67.80
2019-04-30T05:34:16.247Z,67.80
2019-04-30T05:36:46.136Z,67.90
2019-04-30T05:39:15.914Z,68.00
2019-04-30T05:41:46.073Z,68.10
2019-04-30T05:44:15.849Z,68.20
2019-04-30T05:46:45.669Z,68.30
2019-04-30T05:49:15.485Z,68.40
2019-04-30T05:51:53.536Z,68.40
2019-04-30T05:54:18.919Z,67.80
2019-04-30T05:56:49.385Z,68.60
2019-04-30T05:59:20.636Z,68.60
2019-04-30T06:01:51.438Z,68.50
2019-04-30T06:04:21.326Z,68.40
2019-04-30T06:06:51.198Z,68.30
2019-04-30T06:09:38.609Z,68.30
2019-04-30T06:12:30.807Z,68.30
2019-04-30T06:15:31.286Z,68.40
2019-04-30T06:18:10.459Z,68.20
2019-04-30T06:20:32.982Z,68.10
2019-04-30T06:23:02.772Z,68.20
2019-04-30T06:25:45.723Z,68.30
2019-04-30T06:28:04.534Z,68.30
2019-04-30T06:30:34.724Z,68.40
2019-04-30T06:33:04.532Z,68.30
2019-04-30T06:35:34.302Z,67.80
2019-04-30T06:38:04.277Z,68.10
2019-04-30T06:40:34.030Z,68.00
2019-04-30T06:43:04.188Z,67.90
2019-04-30T06:45:33.930Z,67.70
2019-04-30T06:48:04.324Z,67.60
2019-04-30T06:50:34.135Z,67.60
2019-04-30T06:53:03.933Z,67.50
2019-04-30T06:55:34.159Z,67.50
2019-04-30T06:58:14.224Z,67.50
2019-04-30T07:00:40.237Z,67.40
2019-04-30T07:03:10.219Z,67.60
2019-04-30T07:05:40.010Z,67.70
2019-04-30T07:08:37.325Z,67.60
2019-04-30T07:11:16.378Z,67.60
2019-04-30T07:13:51.756Z,67.10
2019-04-30T07:16:20.688Z,67.00
2019-04-30T07:18:50.502Z,67.10
2019-04-30T07:21:20.326Z,66.80
2019-04-30T07:23:50.154Z,66.50
2019-04-30T07:26:24.359Z,66.30
2019-04-30T07:28:54.785Z,66.10
2019-04-30T07:31:22.865Z,66.10
2019-04-30T07:33:53.982Z,66.00
2019-04-30T07:36:42.464Z,65.90
2019-04-30T07:38:56.729Z,65.80
2019-04-30T07:41:30.864Z,65.80
2019-04-30T07:43:59.385Z,65.70
2019-04-30T07:46:34.756Z,65.60
2019-04-30T07:49:01.510Z,65.60
2019-04-30T07:51:37.480Z,65.60
2019-04-30T07:54:03.975Z,65.80
2019-04-30T07:56:38.071Z,65.70
2019-04-30T07:59:05.275Z,65.60
2019-04-30T08:01:35.132Z,65.60
2019-04-30T08:04:14.126Z,65.90
2019-04-30T08:06:43.950Z,65.60
2019-04-30T08:09:14.314Z,65.50
2019-04-30T08:11:44.596Z,65.10
2019-04-30T08:14:15.408Z,65.20
2019-04-30T08:16:45.837Z,65.20
2019-04-30T08:19:15.594Z,65.00
2019-04-30T08:21:48.577Z,64.90
2019-04-30T08:24:19.374Z,64.60
2019-04-30T08:26:49.733Z,64.50
2019-04-30T08:29:19.984Z,64.50
2019-04-30T08:31:50.265Z,64.50
2019-04-30T08:34:20.457Z,64.50
2019-04-30T08:36:51.481Z,64.30
2019-04-30T08:39:21.801Z,64.30
2019-04-30T08:41:52.085Z,64.30
2019-04-30T08:44:21.997Z,64.30
2019-04-30T08:46:55.613Z,64.30
2019-04-30T08:49:25.604Z,64.30
2019-04-30T08:51:55.726Z,64.30
2019-04-30T08:54:25.509Z,64.20
2019-04-30T08:56:55.314Z,64.10
2019-04-30T08:59:25.073Z,63.90
2019-04-30T09:01:54.942Z,63.60
2019-04-30T09:04:28.956Z,63.60
2019-04-30T09:06:59.972Z,63.50
2019-04-30T09:09:44.559Z,63.60
2019-04-30T09:12:13.902Z,63.40
2019-04-30T09:14:43.690Z,63.40
2019-04-30T09:17:13.498Z,63.40
2019-04-30T09:19:43.247Z,63.30
2019-04-30T09:22:15.304Z,63.30
2019-04-30T09:24:45.696Z,63.50
2019-04-30T09:27:15.503Z,63.30
2019-04-30T09:29:45.650Z,63.10
2019-04-30T09:32:15.998Z,62.90
2019-04-30T09:34:45.854Z,62.70
2019-04-30T09:37:16.149Z,62.60
2019-04-30T09:39:46.424Z,62.30
2019-04-30T09:42:16.284Z,62.30
2019-04-30T09:44:46.509Z,61.90
2019-04-30T09:47:16.836Z,62.00
2019-04-30T09:49:49.357Z,61.70
2019-04-30T09:52:19.667Z,61.80
2019-04-30T09:54:50.955Z,61.70
2019-04-30T09:57:21.067Z,61.80
2019-04-30T09:59:50.916Z,61.90
2019-04-30T10:02:20.723Z,61.80
2019-04-30T10:04:50.844Z,62.10
2019-04-30T10:07:21.604Z,62.10
2019-04-30T10:09:52.348Z,62.00
2019-04-30T10:12:22.134Z,62.00
2019-04-30T10:14:52.418Z,61.80
2019-04-30T10:17:34.786Z,61.70
2019-04-30T10:20:05.793Z,61.60
2019-04-30T10:22:36.209Z,61.60
2019-04-30T10:25:09.154Z,62.30
2019-04-30T10:27:38.911Z,61.60
2019-04-30T10:30:09.538Z,61.40
2019-04-30T10:32:39.840Z,61.00
2019-04-30T10:35:11.721Z,60.70
2019-04-30T10:37:41.502Z,60.50
2019-04-30T10:40:11.346Z,60.70
2019-04-30T10:42:41.112Z,60.50
2019-04-30T10:45:10.956Z,60.50
2019-04-30T10:47:41.108Z,60.10
2019-04-30T10:50:12.099Z,59.90
2019-04-30T10:52:41.898Z,59.60
2019-04-30T10:55:11.773Z,59.20
2019-04-30T10:57:41.557Z,59.30
2019-04-30T11:00:13.564Z,59.10
2019-04-30T11:02:43.866Z,59.00
2019-04-30T11:05:15.208Z,58.90
2019-04-30T11:07:45.953Z,58.70
2019-04-30T11:10:16.195Z,58.70
2019-04-30T11:12:45.995Z,58.70
2019-04-30T11:15:20.669Z,58.80
2019-04-30T11:17:49.710Z,58.80
2019-04-30T11:20:22.255Z,58.60
2019-04-30T11:22:53.094Z,58.50
2019-04-30T11:25:23.328Z,58.50
2019-04-30T11:27:54.167Z,58.40
2019-04-30T11:30:24.825Z,58.30
2019-04-30T11:32:55.575Z,58.10
2019-04-30T11:35:26.122Z,58.00
2019-04-30T11:37:55.995Z,58.10
2019-04-30T11:40:34.491Z,57.90
2019-04-30T11:42:59.196Z,57.60
2019-04-30T11:45:55.563Z,57.60
2019-04-30T11:48:25.803Z,57.50
2019-04-30T11:50:56.036Z,57.50
2019-04-30T11:53:30.162Z,58.10
2019-04-30T11:55:59.105Z,57.10
2019-04-30T11:58:30.521Z,56.80
2019-04-30T12:01:00.826Z,56.70
2019-04-30T12:03:30.625Z,56.60
2019-04-30T12:06:00.460Z,56.50
2019-04-30T12:08:33.517Z,56.40
2019-04-30T12:11:10.414Z,56.30
2019-04-30T12:13:40.619Z,56.60
2019-04-30T12:16:11.474Z,56.50
2019-04-30T12:18:41.643Z,56.40
2019-04-30T12:21:11.457Z,56.40
2019-04-30T12:23:41.233Z,56.20
2019-04-30T12:26:11.842Z,55.50
2019-04-30T12:28:42.335Z,55.90
2019-04-30T12:31:12.187Z,55.90
2019-04-30T12:33:42.100Z,55.90
2019-04-30T12:36:11.941Z,55.90
2019-04-30T12:38:42.538Z,55.90
2019-04-30T12:41:12.381Z,55.70
2019-04-30T12:43:42.141Z,55.40
2019-04-30T12:46:13.159Z,55.20
2019-04-30T12:49:20.153Z,54.80
2019-04-30T12:52:24.118Z,54.40
2019-04-30T12:55:15.591Z,53.90
2019-04-30T12:57:56.193Z,53.70
2019-04-30T13:00:16.878Z,53.50
2019-04-30T13:02:47.147Z,53.80
2019-04-30T13:05:18.723Z,53.70
2019-04-30T13:07:50.357Z,53.30
2019-04-30T13:10:21.071Z,53.40
2019-04-30T13:12:52.129Z,53.80
2019-04-30T13:15:22.348Z,53.80
2019-04-30T13:17:52.214Z,53.40
2019-04-30T13:20:24.155Z,53.30
2019-04-30T13:22:54.430Z,53.30
2019-04-30T13:25:32.450Z,53.20
2019-04-30T13:28:00.648Z,53.10
2019-04-30T13:30:32.233Z,53.50
2019-04-30T13:33:28.838Z,52.30
2019-04-30T13:35:59.221Z,51.90
2019-04-30T13:38:45.100Z,51.60
2019-04-30T13:41:29.686Z,51.20
2019-04-30T13:44:09.657Z,50.70
2019-04-30T13:46:40.093Z,50.70
2019-04-30T13:49:09.905Z,50.60
2019-04-30T13:51:42.872Z,50.10
2019-04-30T13:54:12.395Z,50.10
2019-04-30T13:56:42.558Z,49.80
2019-04-30T13:59:12.383Z,49.60
2019-04-30T14:01:42.183Z,49.40
2019-04-30T14:04:30.835Z,49.60
2019-04-30T14:07:19.432Z,49.70
2019-04-30T14:09:52.357Z,49.70
2019-04-30T14:12:21.577Z,49.50
2019-04-30T14:14:53.328Z,49.20
2019-04-30T14:17:23.902Z,49.00
2019-04-30T14:19:54.235Z,48.80
2019-04-30T14:22:24.057Z,48.20
2019-04-30T14:24:53.862Z,48.00
2019-04-30T14:27:24.843Z,47.50
2019-04-30T14:29:55.091Z,46.80
2019-04-30T14:32:24.924Z,46.30
2019-04-30T14:34:55.224Z,45.90
2019-04-30T14:37:25.429Z,45.70
2019-04-30T14:39:55.917Z,45.40
2019-04-30T14:42:27.341Z,45.40
2019-04-30T14:45:10.005Z,45.50
2019-04-30T14:47:51.473Z,45.00
2019-04-30T14:50:22.382Z,45.00
2019-04-30T14:52:59.886Z,45.40
2019-04-30T14:55:51.463Z,45.50
2019-04-30T14:58:39.375Z,46.00
2019-04-30T15:01:19.388Z,46.30
2019-04-30T15:03:49.795Z,46.20
2019-04-30T15:06:20.492Z,46.00
2019-04-30T15:08:50.389Z,45.40
2019-04-30T15:11:20.214Z,45.10
2019-04-30T15:13:50.561Z,45.00
2019-04-30T15:16:20.376Z,44.70
2019-04-30T15:18:50.194Z,44.40
2019-04-30T15:21:19.998Z,44.30
2019-04-30T15:24:02.651Z,44.30
2019-04-30T15:26:32.896Z,44.00
2019-04-30T15:29:12.172Z,44.00
2019-04-30T15:31:34.414Z,43.90
2019-04-30T15:34:14.903Z,43.40
2019-04-30T15:36:44.719Z,43.10
2019-04-30T15:39:39.362Z,42.80
2019-04-30T15:42:10.560Z,42.50
2019-04-30T15:44:42.669Z,42.80
2019-04-30T15:47:11.836Z,42.30
2019-04-30T15:49:41.664Z,42.10
2019-04-30T15:52:11.466Z,42.40
2019-04-30T15:54:41.289Z,41.00
2019-04-30T15:57:11.521Z,40.30
2019-04-30T15:59:42.796Z,40.30
2019-04-30T16:02:31.420Z,40.10
2019-04-30T16:05:19.160Z,39.80
2019-04-30T16:08:26.678Z,39.00
2019-04-30T16:11:16.210Z,38.80
2019-04-30T16:14:20.091Z,38.90
2019-04-30T16:17:15.077Z,38.40
2019-04-30T16:19:45.057Z,38.40
2019-04-30T16:22:14.900Z,38.70
2019-04-30T16:24:44.694Z,37.70
2019-04-30T16:27:14.521Z,37.00
2019-04-30T16:29:44.311Z,37.10
2019-04-30T16:32:14.108Z,36.80
2019-04-30T16:34:44.371Z,36.00
2019-04-30T16:37:15.043Z,36.00
2019-04-30T16:39:44.861Z,35.80
2019-04-30T16:42:15.624Z,35.50
2019-04-30T16:44:45.717Z,35.60
2019-04-30T16:47:16.968Z,35.20
2019-04-30T16:49:48.853Z,34.90
2019-04-30T16:52:19.115Z,35.20
2019-04-30T16:54:49.987Z,34.00
2019-04-30T16:57:19.810Z,34.00
2019-04-30T16:59:53.349Z,34.10
2019-04-30T17:02:24.866Z,33.60
2019-04-30T17:05:02.953Z,33.10
2019-04-30T17:07:46.540Z,32.90
2019-04-30T17:10:30.489Z,33.30
2019-04-30T17:13:24.921Z,33.40
2019-04-30T17:15:59.451Z,33.20
2019-04-30T17:18:29.719Z,33.50
2019-04-30T17:21:00.096Z,33.50
2019-04-30T17:23:30.424Z,33.50
2019-04-30T17:26:00.586Z,33.50
2019-04-30T17:28:30.740Z,33.60
2019-04-30T17:31:00.687Z,33.50
2019-04-30T17:33:30.494Z,33.40
2019-04-30T17:36:00.822Z,33.80
2019-04-30T17:38:31.062Z,33.60
2019-04-30T17:41:00.894Z,33.40
2019-04-30T17:43:31.132Z,32.90
2019-04-30T17:46:00.963Z,33.00
2019-04-30T17:48:30.978Z,33.20
2019-04-30T17:51:01.339Z,33.20
2019-04-30T17:53:32.042Z,33.10
2019-04-30T17:56:01.900Z,33.20
2019-04-30T17:58:31.707Z,33.60
2019-04-30T18:01:03.505Z,34.00
2019-04-30T18:03:33.774Z,33.60
2019-04-30T18:06:04.111Z,34.10
2019-04-30T18:08:33.892Z,34.10
2019-04-30T18:11:03.717Z,34.10
2019-04-30T18:13:34.135Z,34.40
2019-04-30T18:16:04.099Z,34.70
2019-04-30T18:18:59.211Z,34.80
2019-04-30T18:21:50.919Z,35.20
2019-04-30T18:24:52.076Z,35.50
2019-04-30T18:27:25.584Z,35.80
2019-04-30T18:29:56.099Z,35.90
2019-04-30T18:32:29.624Z,35.60
2019-04-30T18:34:59.622Z,35.90
2019-04-30T18:37:29.448Z,36.10
2019-04-30T18:40:00.178Z,36.60
2019-04-30T18:42:30.904Z,36.70
2019-04-30T18:45:01.874Z,36.70
2019-04-30T18:47:32.312Z,36.70
2019-04-30T18:50:02.832Z,36.80
2019-04-30T18:52:33.694Z,36.90
2019-04-30T18:55:04.717Z,36.90
2019-04-30T18:57:35.033Z,37.20
2019-04-30T19:00:05.779Z,37.40
2019-04-30T19:02:36.232Z,37.30
2019-04-30T19:05:09.540Z,37.40
2019-04-30T19:07:46.229Z,37.40
2019-04-30T19:10:33.726Z,37.10
2019-04-30T19:13:19.049Z,37.00
2019-04-30T19:16:19.693Z,37.30
2019-04-30T19:18:46.326Z,37.50
2019-04-30T19:21:16.967Z,37.60
2019-04-30T19:23:48.713Z,37.50
2019-04-30T19:26:19.004Z,37.70
2019-04-30T19:28:50.254Z,37.70
2019-04-30T19:31:21.136Z,37.90
2019-04-30T19:33:51.945Z,37.80
2019-04-30T19:36:35.151Z,37.90
2019-04-30T19:38:53.879Z,38.00
2019-04-30T19:41:23.736Z,38.00
2019-04-30T19:43:54.816Z,38.10
2019-04-30T19:46:24.579Z,38.30
2019-04-30T19:48:54.842Z,37.80
2019-04-30T19:51:25.109Z,37.80
2019-04-30T19:53:55.859Z,38.10
2019-04-30T19:56:25.677Z,38.10
2019-04-30T19:59:02.789Z,38.20
2019-04-30T20:01:28.668Z,38.30
2019-04-30T20:03:59.647Z,38.40
2019-04-30T20:06:29.809Z,38.40
2019-04-30T20:09:00.828Z,39.10
2019-04-30T20:11:31.866Z,38.60
2019-04-30T20:14:04.531Z,38.70
2019-04-30T20:16:35.897Z,38.80
2019-04-30T20:19:06.333Z,38.80
2019-04-30T20:21:48.170Z,38.90
2019-04-30T20:24:08.521Z,38.90
2019-04-30T20:26:38.456Z,38.90
2019-04-30T20:29:09.099Z,38.90
2019-04-30T20:31:40.485Z,38.70
2019-04-30T20:34:10.455Z,38.80
2019-04-30T20:36:40.249Z,39.00
2019-04-30T20:39:29.177Z,39.10
2019-04-30T20:41:59.291Z,39.30
2019-04-30T20:44:29.667Z,39.20
2019-04-30T20:47:00.099Z,39.20
2019-04-30T20:49:30.521Z,39.40
2019-04-30T20:52:01.686Z,39.80
2019-04-30T20:54:32.426Z,39.50
2019-04-30T20:57:02.956Z,39.50
2019-04-30T20:59:32.876Z,39.50
2019-04-30T21:02:03.074Z,39.60
2019-04-30T21:04:32.906Z,39.60
2019-04-30T21:07:03.305Z,39.70
2019-04-30T21:09:33.102Z,39.90
2019-04-30T21:12:03.645Z,39.90
2019-04-30T21:14:33.665Z,40.00
2019-04-30T21:17:03.894Z,40.00
2019-04-30T21:19:34.066Z,40.10
2019-04-30T21:22:04.373Z,40.00
2019-04-30T21:24:34.642Z,40.10
2019-04-30T21:27:04.576Z,40.20
2019-04-30T21:29:34.847Z,40.20
2019-04-30T21:32:16.703Z,40.30
2019-04-30T21:35:20.493Z,40.30
2019-04-30T21:37:50.319Z,40.40
2019-04-30T21:40:20.106Z,40.40
2019-04-30T21:42:50.477Z,40.40
2019-04-30T21:45:20.267Z,40.40
2019-04-30T21:47:56.340Z,40.60
2019-04-30T21:50:21.747Z,40.70
2019-04-30T21:52:51.945Z,40.50
2019-04-30T21:55:21.716Z,40.70
2019-04-30T21:57:51.529Z,41.60
2019-04-30T22:00:55.575Z,40.90
2019-04-30T22:03:25.549Z,40.70
2019-04-30T22:05:55.744Z,41.50
2019-04-30T22:08:25.998Z,41.00
2019-04-30T22:10:56.227Z,41.10
2019-04-30T22:13:26.530Z,41.20
2019-04-30T22:15:56.296Z,41.30
2019-04-30T22:18:26.680Z,41.30
2019-04-30T22:20:57.057Z,41.30
2019-04-30T22:23:26.890Z,41.40
2019-04-30T22:25:56.681Z,41.50
2019-04-30T22:28:26.478Z,41.70
2019-04-30T22:30:56.281Z,41.70
2019-04-30T22:33:26.107Z,41.80
2019-04-30T22:36:18.880Z,41.90
2019-04-30T22:39:06.614Z,42.00
2019-04-30T22:41:36.404Z,42.20
2019-04-30T22:44:06.228Z,42.10
2019-04-30T22:46:36.562Z,42.30
2019-04-30T22:49:06.574Z,42.20
2019-04-30T22:51:36.383Z,42.20
2019-04-30T22:54:07.568Z,42.50
2019-04-30T22:56:37.392Z,42.60
2019-04-30T22:59:07.238Z,42.70
2019-04-30T23:01:58.587Z,42.80
2019-04-30T23:04:47.247Z,42.80
2019-04-30T23:07:17.970Z,42.90
2019-04-30T23:09:50.674Z,42.90
2019-04-30T23:12:21.281Z,43.00
2019-04-30T23:14:51.107Z,43.20
2019-04-30T23:17:20.954Z,43.20
2019-04-30T23:19:51.152Z,43.30
2019-04-30T23:22:21.460Z,43.40
2019-04-30T23:24:51.725Z,43.50
2019-04-30T23:27:21.510Z,43.40
2019-04-30T23:30:02.743Z,43.50
2019-04-30T23:32:23.279Z,43.50
2019-04-30T23:34:53.112Z,43.60
2019-04-30T23:37:23.424Z,43.70
2019-04-30T23:39:53.282Z,43.80
2019-04-30T23:42:23.535Z,43.80
2019-04-30T23:44:53.347Z,43.80
2019-04-30T23:47:23.330Z,43.90
2019-04-30T23:49:53.648Z,43.90
2019-04-30T23:52:23.438Z,43.90
2019-04-30T23:54:53.671Z,43.90
2019-04-30T23:57:23.540Z,44.60
2019-04-30T23:59:53.437Z,44.00
